Strona główna
METAR-TAF:

METAR-TAF

Lotnisko :

Port lotniczy Ambon

Ambon, Indonezja

Szerokość geograficzna: 03-42S, Długość geograficzna: 128-05E, wysokość: 12 m

Aktualna obserwacja pogody

Raport powstał 1 godzina i 32 minut temu, godzina 11:00 UTC
Wiatr 8 kt od północno-północny zachód
Temperatura 26°C
Wilgotność 89%
Ciśnienie 1008 hPa
Widzialność 10 km lub więcej
Rozproszone chmury na wysokości 1900 ft

METAR: WAPP 281100Z 34008KT 9999 SCT019 26/24 Q1008 NOSIG

czas: 21:32 (12:32 UTC)

Prognoza

Raport powstał 1 godzina i 32 minut temu, godzina 11:00 UTC
Prognoza ważna od 28 godzina 12 UTC do 29 godzina 12 UTC
Wiatr 7 kt od północno-północny zachód
Widzialność 10 km lub więcej
Rozproszone chmury na wysokości 1800 ft

TAF: WAPP 281100Z 2812/2912 34007KT 9999 SCT018

Obserwacja i prognoza pogody dla ponad 4000 lotnisk (raport METAR i TAF).

Dostępne stacje oznaczono żółtymi i czerwonymi punktami na mapie.

Najedź kursorem aby zobaczyć nazwę stacji.

Kliknij aby zobaczyć obserwacje i prognozy pogody.

Aby zmienić mapę: kliknij na zielony przycisk z czarnym krzyżykiem, aby powiększyć; na zielony przycisk z myślnikiem, aby pomniejszyć; na zielone strzałki, aby przejść do map sąsiednich.


METAR-TAF: